sensor_id;sensor_type;location;lat;lon;timestamp;P1;durP1;ratioP1;P2;durP2;ratioP2
10170;SDS011;5127;50.922;6.988;2023-02-19T00:01:00;1.30;;;1.30;;
10170;SDS011;5127;50.922;6.988;2023-02-19T00:03:32;1.90;;;1.80;;
10170;SDS011;5127;50.922;6.988;2023-02-19T00:06:00;2.53;;;2.33;;
10170;SDS011;5127;50.922;6.988;2023-02-19T00:08:28;2.53;;;2.37;;
10170;SDS011;5127;50.922;6.988;2023-02-19T00:11:00;2.30;;;2.10;;
10170;SDS011;5127;50.922;6.988;2023-02-19T00:13:27;2.50;;;2.30;;
10170;SDS011;5127;50.922;6.988;2023-02-19T00:15:55;2.90;;;2.70;;
10170;SDS011;5127;50.922;6.988;2023-02-19T00:18:22;3.10;;;2.70;;
10170;SDS011;5127;50.922;6.988;2023-02-19T00:20:49;2.50;;;2.30;;
10170;SDS011;5127;50.922;6.988;2023-02-19T00:23:16;2.50;;;2.30;;
10170;SDS011;5127;50.922;6.988;2023-02-19T00:25:43;2.77;;;2.57;;
10170;SDS011;5127;50.922;6.988;2023-02-19T00:28:12;2.63;;;2.43;;
10170;SDS011;5127;50.922;6.988;2023-02-19T00:30:39;2.70;;;2.50;;
10170;SDS011;5127;50.922;6.988;2023-02-19T00:33:07;2.40;;;2.20;;
10170;SDS011;5127;50.922;6.988;2023-02-19T00:35:34;2.17;;;2.07;;
10170;SDS011;5127;50.922;6.988;2023-02-19T00:38:01;2.13;;;2.03;;
10170;SDS011;5127;50.922;6.988;2023-02-19T00:40:29;2.60;;;2.40;;
10170;SDS011;5127;50.922;6.988;2023-02-19T00:42:56;2.80;;;2.60;;
10170;SDS011;5127;50.922;6.988;2023-02-19T00:45:25;2.20;;;2.10;;
10170;SDS011;5127;50.922;6.988;2023-02-19T00:47:53;2.70;;;2.50;;
10170;SDS011;5127;50.922;6.988;2023-02-19T00:50:21;2.53;;;2.40;;
10170;SDS011;5127;50.922;6.988;2023-02-19T00:52:48;2.37;;;2.23;;
10170;SDS011;5127;50.922;6.988;2023-02-19T00:55:15;2.73;;;2.53;;
10170;SDS011;5127;50.922;6.988;2023-02-19T00:57:42;3.03;;;2.80;;
10170;SDS011;5127;50.922;6.988;2023-02-19T01:00:10;2.83;;;2.63;;
10170;SDS011;5127;50.922;6.988;2023-02-19T01:02:40;2.50;;;2.30;;
10170;SDS011;5127;50.922;6.988;2023-02-19T01:05:07;3.00;;;2.70;;
10170;SDS011;5127;50.922;6.988;2023-02-19T01:07:34;2.90;;;2.60;;
10170;SDS011;5127;50.922;6.988;2023-02-19T01:10:02;3.17;;;2.90;;
10170;SDS011;5127;50.922;6.988;2023-02-19T01:12:29;2.67;;;2.20;;
10170;SDS011;5127;50.922;6.988;2023-02-19T01:14:57;2.80;;;2.60;;
10170;SDS011;5127;50.922;6.988;2023-02-19T01:17:24;2.50;;;2.30;;
10170;SDS011;5127;50.922;6.988;2023-02-19T01:19:53;2.83;;;2.63;;
10170;SDS011;5127;50.922;6.988;2023-02-19T01:22:20;2.60;;;2.40;;
10170;SDS011;5127;50.922;6.988;2023-02-19T01:24:47;2.70;;;2.47;;
10170;SDS011;5127;50.922;6.988;2023-02-19T01:27:14;3.53;;;2.50;;
10170;SDS011;5127;50.922;6.988;2023-02-19T01:29:41;2.80;;;2.60;;
10170;SDS011;5127;50.922;6.988;2023-02-19T01:32:09;2.77;;;2.50;;
10170;SDS011;5127;50.922;6.988;2023-02-19T01:34:36;2.67;;;2.47;;
10170;SDS011;5127;50.922;6.988;2023-02-19T01:37:05;2.77;;;2.57;;
10170;SDS011;5127;50.922;6.988;2023-02-19T01:39:36;3.13;;;2.93;;
10170;SDS011;5127;50.922;6.988;2023-02-19T01:42:03;2.93;;;2.73;;
10170;SDS011;5127;50.922;6.988;2023-02-19T01:47:51;3.20;;;2.90;;
10170;SDS011;5127;50.922;6.988;2023-02-19T01:50:32;3.40;;;3.00;;
10170;SDS011;5127;50.922;6.988;2023-02-19T01:53:04;3.80;;;2.87;;
10170;SDS011;5127;50.922;6.988;2023-02-19T01:55:34;3.43;;;3.17;;
10170;SDS011;5127;50.922;6.988;2023-02-19T01:58:01;3.53;;;3.23;;
10170;SDS011;5127;50.922;6.988;2023-02-19T02:00:29;3.07;;;2.87;;
10170;SDS011;5127;50.922;6.988;2023-02-19T02:02:58;3.30;;;3.00;;
10170;SDS011;5127;50.922;6.988;2023-02-19T02:05:38;4.30;;;2.60;;
10170;SDS011;5127;50.922;6.988;2023-02-19T02:08:13;3.00;;;2.80;;
10170;SDS011;5127;50.922;6.988;2023-02-19T02:10:59;2.80;;;2.57;;
10170;SDS011;5127;50.922;6.988;2023-02-19T02:13:27;3.10;;;2.80;;
10170;SDS011;5127;50.922;6.988;2023-02-19T02:15:59;2.93;;;2.73;;
10170;SDS011;5127;50.922;6.988;2023-02-19T02:18:34;3.37;;;3.07;;
10170;SDS011;5127;50.922;6.988;2023-02-19T02:21:21;3.43;;;2.90;;
10170;SDS011;5127;50.922;6.988;2023-02-19T02:24:23;3.80;;;2.80;;
10170;SDS011;5127;50.922;6.988;2023-02-19T02:27:18;3.27;;;2.97;;
10170;SDS011;5127;50.922;6.988;2023-02-19T02:30:10;3.60;;;3.03;;
10170;SDS011;5127;50.922;6.988;2023-02-19T02:32:57;2.73;;;2.47;;
10170;SDS011;5127;50.922;6.988;2023-02-19T02:38:19;3.53;;;3.23;;
10170;SDS011;5127;50.922;6.988;2023-02-19T02:40:51;4.13;;;3.73;;
10170;SDS011;5127;50.922;6.988;2023-02-19T02:43:21;3.83;;;3.43;;
10170;SDS011;5127;50.922;6.988;2023-02-19T02:45:50;3.43;;;3.10;;
10170;SDS011;5127;50.922;6.988;2023-02-19T02:48:30;2.80;;;2.60;;
10170;SDS011;5127;50.922;6.988;2023-02-19T02:51:03;3.10;;;2.80;;
10170;SDS011;5127;50.922;6.988;2023-02-19T02:53:40;4.17;;;3.20;;
10170;SDS011;5127;50.922;6.988;2023-02-19T02:56:29;3.53;;;3.20;;
10170;SDS011;5127;50.922;6.988;2023-02-19T02:58:57;3.30;;;3.00;;
10170;SDS011;5127;50.922;6.988;2023-02-19T03:01:30;3.80;;;3.30;;
10170;SDS011;5127;50.922;6.988;2023-02-19T03:04:22;3.63;;;3.00;;
10170;SDS011;5127;50.922;6.988;2023-02-19T03:06:52;3.23;;;2.90;;
10170;SDS011;5127;50.922;6.988;2023-02-19T03:09:23;3.37;;;2.80;;
10170;SDS011;5127;50.922;6.988;2023-02-19T03:11:55;3.30;;;3.00;;
10170;SDS011;5127;50.922;6.988;2023-02-19T03:14:44;3.13;;;2.83;;
10170;SDS011;5127;50.922;6.988;2023-02-19T03:17:33;3.20;;;2.80;;
10170;SDS011;5127;50.922;6.988;2023-02-19T03:20:24;3.30;;;3.10;;
10170;SDS011;5127;50.922;6.988;2023-02-19T03:22:52;4.30;;;3.33;;
10170;SDS011;5127;50.922;6.988;2023-02-19T03:25:22;5.50;;;3.60;;
10170;SDS011;5127;50.922;6.988;2023-02-19T03:28:14;4.23;;;3.33;;
10170;SDS011;5127;50.922;6.988;2023-02-19T03:30:46;4.97;;;3.50;;
10170;SDS011;5127;50.922;6.988;2023-02-19T03:33:17;5.10;;;4.00;;
10170;SDS011;5127;50.922;6.988;2023-02-19T03:35:48;4.73;;;3.80;;
10170;SDS011;5127;50.922;6.988;2023-02-19T03:38:21;4.23;;;3.83;;
10170;SDS011;5127;50.922;6.988;2023-02-19T03:40:54;5.43;;;4.10;;
10170;SDS011;5127;50.922;6.988;2023-02-19T03:43:26;5.63;;;4.50;;
10170;SDS011;5127;50.922;6.988;2023-02-19T03:46:02;6.97;;;4.57;;
10170;SDS011;5127;50.922;6.988;2023-02-19T03:48:36;5.33;;;4.67;;
10170;SDS011;5127;50.922;6.988;2023-02-19T03:51:13;6.17;;;4.37;;
10170;SDS011;5127;50.922;6.988;2023-02-19T03:53:51;6.80;;;4.70;;
10170;SDS011;5127;50.922;6.988;2023-02-19T03:56:26;6.53;;;4.83;;
10170;SDS011;5127;50.922;6.988;2023-02-19T03:58:59;5.13;;;4.63;;
10170;SDS011;5127;50.922;6.988;2023-02-19T04:01:35;5.77;;;5.20;;
10170;SDS011;5127;50.922;6.988;2023-02-19T04:04:11;5.30;;;4.80;;
10170;SDS011;5127;50.922;6.988;2023-02-19T04:06:41;5.90;;;5.13;;
10170;SDS011;5127;50.922;6.988;2023-02-19T04:09:12;6.40;;;5.70;;
10170;SDS011;5127;50.922;6.988;2023-02-19T04:11:46;6.63;;;5.10;;
10170;SDS011;5127;50.922;6.988;2023-02-19T04:14:16;6.50;;;5.40;;
10170;SDS011;5127;50.922;6.988;2023-02-19T04:16:49;7.10;;;5.33;;
10170;SDS011;5127;50.922;6.988;2023-02-19T04:19:22;7.53;;;5.17;;
10170;SDS011;5127;50.922;6.988;2023-02-19T04:21:52;8.27;;;5.67;;
10170;SDS011;5127;50.922;6.988;2023-02-19T04:24:23;7.97;;;5.90;;
10170;SDS011;5127;50.922;6.988;2023-02-19T04:26:53;7.10;;;5.60;;
10170;SDS011;5127;50.922;6.988;2023-02-19T04:29:21;7.17;;;5.90;;
10170;SDS011;5127;50.922;6.988;2023-02-19T04:31:48;8.73;;;5.73;;
10170;SDS011;5127;50.922;6.988;2023-02-19T04:34:15;8.90;;;6.17;;
10170;SDS011;5127;50.922;6.988;2023-02-19T04:36:44;7.67;;;6.10;;
10170;SDS011;5127;50.922;6.988;2023-02-19T04:39:11;8.40;;;6.43;;
10170;SDS011;5127;50.922;6.988;2023-02-19T04:41:38;8.87;;;5.97;;
10170;SDS011;5127;50.922;6.988;2023-02-19T04:44:06;8.27;;;5.97;;
10170;SDS011;5127;50.922;6.988;2023-02-19T04:46:33;9.13;;;6.27;;
10170;SDS011;5127;50.922;6.988;2023-02-19T04:49:00;10.13;;;6.93;;
10170;SDS011;5127;50.922;6.988;2023-02-19T04:51:27;6.97;;;5.70;;
10170;SDS011;5127;50.922;6.988;2023-02-19T04:53:56;8.97;;;6.70;;
10170;SDS011;5127;50.922;6.988;2023-02-19T04:56:23;7.13;;;5.90;;
10170;SDS011;5127;50.922;6.988;2023-02-19T04:58:50;11.40;;;7.47;;
10170;SDS011;5127;50.922;6.988;2023-02-19T05:01:18;8.80;;;6.50;;
10170;SDS011;5127;50.922;6.988;2023-02-19T05:03:45;7.60;;;6.60;;
10170;SDS011;5127;50.922;6.988;2023-02-19T05:06:12;7.10;;;6.27;;
10170;SDS011;5127;50.922;6.988;2023-02-19T05:08:40;8.03;;;6.53;;
10170;SDS011;5127;50.922;6.988;2023-02-19T05:11:10;7.23;;;6.33;;
10170;SDS011;5127;50.922;6.988;2023-02-19T05:13:38;8.70;;;6.47;;
10170;SDS011;5127;50.922;6.988;2023-02-19T05:16:06;8.87;;;6.50;;
10170;SDS011;5127;50.922;6.988;2023-02-19T05:18:38;8.23;;;6.90;;
10170;SDS011;5127;50.922;6.988;2023-02-19T05:21:06;9.07;;;6.30;;
10170;SDS011;5127;50.922;6.988;2023-02-19T05:23:34;8.40;;;6.70;;
10170;SDS011;5127;50.922;6.988;2023-02-19T05:26:03;10.03;;;7.47;;
10170;SDS011;5127;50.922;6.988;2023-02-19T05:28:32;9.80;;;7.37;;
10170;SDS011;5127;50.922;6.988;2023-02-19T05:31:03;10.20;;;7.33;;
10170;SDS011;5127;50.922;6.988;2023-02-19T05:33:31;10.67;;;6.97;;
10170;SDS011;5127;50.922;6.988;2023-02-19T05:36:02;9.70;;;7.37;;
10170;SDS011;5127;50.922;6.988;2023-02-19T05:38:31;9.73;;;7.27;;
10170;SDS011;5127;50.922;6.988;2023-02-19T05:41:05;9.33;;;7.57;;
10170;SDS011;5127;50.922;6.988;2023-02-19T05:43:35;9.13;;;7.20;;
10170;SDS011;5127;50.922;6.988;2023-02-19T05:46:03;9.50;;;7.17;;
10170;SDS011;5127;50.922;6.988;2023-02-19T05:48:31;8.00;;;6.73;;
10170;SDS011;5127;50.922;6.988;2023-02-19T05:51:00;9.40;;;7.23;;
10170;SDS011;5127;50.922;6.988;2023-02-19T05:53:28;8.57;;;6.97;;
10170;SDS011;5127;50.922;6.988;2023-02-19T05:55:56;8.90;;;7.13;;
10170;SDS011;5127;50.922;6.988;2023-02-19T05:58:23;8.30;;;7.23;;
10170;SDS011;5127;50.922;6.988;2023-02-19T06:00:52;8.77;;;7.17;;
10170;SDS011;5127;50.922;6.988;2023-02-19T06:03:20;9.07;;;7.13;;
10170;SDS011;5127;50.922;6.988;2023-02-19T06:05:48;7.07;;;6.37;;
10170;SDS011;5127;50.922;6.988;2023-02-19T06:08:15;9.73;;;6.93;;
10170;SDS011;5127;50.922;6.988;2023-02-19T06:10:43;9.37;;;8.20;;
10170;SDS011;5127;50.922;6.988;2023-02-19T06:13:10;9.30;;;7.40;;
10170;SDS011;5127;50.922;6.988;2023-02-19T06:15:37;11.47;;;8.53;;
10170;SDS011;5127;50.922;6.988;2023-02-19T06:18:06;11.33;;;7.83;;
10170;SDS011;5127;50.922;6.988;2023-02-19T06:20:33;9.30;;;7.93;;
10170;SDS011;5127;50.922;6.988;2023-02-19T06:23:01;11.97;;;8.27;;
10170;SDS011;5127;50.922;6.988;2023-02-19T06:25:28;9.30;;;8.03;;
10170;SDS011;5127;50.922;6.988;2023-02-19T06:27:55;9.83;;;7.43;;
10170;SDS011;5127;50.922;6.988;2023-02-19T06:30:22;9.63;;;7.93;;
10170;SDS011;5127;50.922;6.988;2023-02-19T06:32:50;11.10;;;7.67;;
10170;SDS011;5127;50.922;6.988;2023-02-19T06:35:19;11.07;;;7.43;;
10170;SDS011;5127;50.922;6.988;2023-02-19T06:37:47;10.00;;;8.13;;
10170;SDS011;5127;50.922;6.988;2023-02-19T06:40:15;10.90;;;8.57;;
10170;SDS011;5127;50.922;6.988;2023-02-19T06:42:42;10.50;;;8.00;;
10170;SDS011;5127;50.922;6.988;2023-02-19T06:45:09;10.93;;;8.00;;
10170;SDS011;5127;50.922;6.988;2023-02-19T06:47:37;12.20;;;7.73;;
10170;SDS011;5127;50.922;6.988;2023-02-19T06:50:04;11.80;;;7.57;;
10170;SDS011;5127;50.922;6.988;2023-02-19T06:52:33;9.73;;;7.83;;
10170;SDS011;5127;50.922;6.988;2023-02-19T06:55:00;9.70;;;7.63;;
10170;SDS011;5127;50.922;6.988;2023-02-19T06:57:27;13.73;;;7.47;;
10170;SDS011;5127;50.922;6.988;2023-02-19T06:59:55;9.33;;;7.53;;
10170;SDS011;5127;50.922;6.988;2023-02-19T07:02:22;10.07;;;7.43;;
10170;SDS011;5127;50.922;6.988;2023-02-19T07:04:49;10.73;;;7.40;;
10170;SDS011;5127;50.922;6.988;2023-02-19T07:07:16;7.40;;;6.03;;
10170;SDS011;5127;50.922;6.988;2023-02-19T07:09:45;9.27;;;6.57;;
10170;SDS011;5127;50.922;6.988;2023-02-19T07:12:12;8.50;;;6.63;;
10170;SDS011;5127;50.922;6.988;2023-02-19T07:14:39;7.23;;;6.23;;
10170;SDS011;5127;50.922;6.988;2023-02-19T07:17:06;9.10;;;6.83;;
10170;SDS011;5127;50.922;6.988;2023-02-19T07:19:34;9.40;;;6.40;;
10170;SDS011;5127;50.922;6.988;2023-02-19T07:22:01;8.27;;;5.80;;
10170;SDS011;5127;50.922;6.988;2023-02-19T07:24:28;8.37;;;6.00;;
10170;SDS011;5127;50.922;6.988;2023-02-19T07:26:57;9.33;;;6.07;;
10170;SDS011;5127;50.922;6.988;2023-02-19T07:29:24;9.27;;;5.90;;
10170;SDS011;5127;50.922;6.988;2023-02-19T07:31:51;10.13;;;5.80;;
10170;SDS011;5127;50.922;6.988;2023-02-19T07:34:19;9.70;;;6.50;;
10170;SDS011;5127;50.922;6.988;2023-02-19T07:36:46;8.17;;;6.27;;
10170;SDS011;5127;50.922;6.988;2023-02-19T07:39:13;9.17;;;5.87;;
10170;SDS011;5127;50.922;6.988;2023-02-19T07:41:41;9.60;;;6.43;;
10170;SDS011;5127;50.922;6.988;2023-02-19T07:44:10;7.87;;;6.63;;
10170;SDS011;5127;50.922;6.988;2023-02-19T07:46:41;7.87;;;6.37;;
10170;SDS011;5127;50.922;6.988;2023-02-19T07:49:08;7.93;;;6.67;;
10170;SDS011;5127;50.922;6.988;2023-02-19T07:51:36;7.53;;;6.20;;
10170;SDS011;5127;50.922;6.988;2023-02-19T07:54:04;8.87;;;6.30;;
10170;SDS011;5127;50.922;6.988;2023-02-19T07:56:32;11.00;;;7.03;;
10170;SDS011;5127;50.922;6.988;2023-02-19T07:58:59;7.93;;;6.00;;
10170;SDS011;5127;50.922;6.988;2023-02-19T08:01:28;10.90;;;6.43;;
10170;SDS011;5127;50.922;6.988;2023-02-19T08:04:27;8.90;;;6.17;;
10170;SDS011;5127;50.922;6.988;2023-02-19T08:06:54;10.07;;;7.03;;
10170;SDS011;5127;50.922;6.988;2023-02-19T08:09:21;8.97;;;6.67;;
10170;SDS011;5127;50.922;6.988;2023-02-19T08:11:48;8.50;;;6.53;;
10170;SDS011;5127;50.922;6.988;2023-02-19T08:14:33;8.80;;;6.60;;
10170;SDS011;5127;50.922;6.988;2023-02-19T08:17:01;9.60;;;6.43;;
10170;SDS011;5127;50.922;6.988;2023-02-19T08:19:29;9.57;;;6.47;;
10170;SDS011;5127;50.922;6.988;2023-02-19T08:21:56;9.43;;;6.57;;
10170;SDS011;5127;50.922;6.988;2023-02-19T08:24:23;9.63;;;6.80;;
10170;SDS011;5127;50.922;6.988;2023-02-19T08:26:51;9.67;;;6.80;;
10170;SDS011;5127;50.922;6.988;2023-02-19T08:29:18;10.37;;;6.17;;
10170;SDS011;5127;50.922;6.988;2023-02-19T08:31:45;7.93;;;5.97;;
10170;SDS011;5127;50.922;6.988;2023-02-19T08:34:13;10.20;;;6.40;;
10170;SDS011;5127;50.922;6.988;2023-02-19T08:36:41;7.63;;;5.67;;
10170;SDS011;5127;50.922;6.988;2023-02-19T08:39:08;9.27;;;5.97;;
10170;SDS011;5127;50.922;6.988;2023-02-19T08:41:36;13.40;;;5.67;;
10170;SDS011;5127;50.922;6.988;2023-02-19T08:44:03;8.37;;;5.73;;
10170;SDS011;5127;50.922;6.988;2023-02-19T08:46:30;7.87;;;5.83;;
10170;SDS011;5127;50.922;6.988;2023-02-19T08:48:58;10.20;;;5.43;;
10170;SDS011;5127;50.922;6.988;2023-02-19T08:51:26;9.93;;;5.33;;
10170;SDS011;5127;50.922;6.988;2023-02-19T08:53:53;10.13;;;5.83;;
10170;SDS011;5127;50.922;6.988;2023-02-19T08:56:21;8.33;;;5.10;;
10170;SDS011;5127;50.922;6.988;2023-02-19T08:58:48;12.77;;;5.47;;
10170;SDS011;5127;50.922;6.988;2023-02-19T09:01:15;8.00;;;5.00;;
10170;SDS011;5127;50.922;6.988;2023-02-19T09:03:43;8.60;;;4.67;;
10170;SDS011;5127;50.922;6.988;2023-02-19T09:06:12;7.70;;;4.90;;
10170;SDS011;5127;50.922;6.988;2023-02-19T09:08:43;9.10;;;4.87;;
10170;SDS011;5127;50.922;6.988;2023-02-19T09:11:10;10.73;;;5.20;;
10170;SDS011;5127;50.922;6.988;2023-02-19T09:13:37;7.50;;;4.83;;
10170;SDS011;5127;50.922;6.988;2023-02-19T09:16:04;8.03;;;4.63;;
10170;SDS011;5127;50.922;6.988;2023-02-19T09:18:32;8.07;;;4.87;;
10170;SDS011;5127;50.922;6.988;2023-02-19T09:20:59;7.93;;;4.23;;
10170;SDS011;5127;50.922;6.988;2023-02-19T09:23:27;8.97;;;4.80;;
10170;SDS011;5127;50.922;6.988;2023-02-19T09:25:59;7.37;;;4.37;;
10170;SDS011;5127;50.922;6.988;2023-02-19T09:28:27;8.87;;;4.47;;
10170;SDS011;5127;50.922;6.988;2023-02-19T09:30:55;6.67;;;3.60;;
10170;SDS011;5127;50.922;6.988;2023-02-19T09:33:22;6.27;;;3.90;;
10170;SDS011;5127;50.922;6.988;2023-02-19T09:35:49;7.47;;;3.83;;
10170;SDS011;5127;50.922;6.988;2023-02-19T09:38:17;8.50;;;3.30;;
10170;SDS011;5127;50.922;6.988;2023-02-19T09:40:44;8.00;;;4.20;;
10170;SDS011;5127;50.922;6.988;2023-02-19T09:43:14;6.47;;;3.73;;
10170;SDS011;5127;50.922;6.988;2023-02-19T09:45:44;8.87;;;3.20;;
10170;SDS011;5127;50.922;6.988;2023-02-19T09:48:11;6.00;;;3.30;;
10170;SDS011;5127;50.922;6.988;2023-02-19T09:50:39;7.27;;;3.77;;
10170;SDS011;5127;50.922;6.988;2023-02-19T09:53:12;9.07;;;3.67;;
10170;SDS011;5127;50.922;6.988;2023-02-19T09:55:43;5.93;;;3.70;;
10170;SDS011;5127;50.922;6.988;2023-02-19T09:58:20;6.00;;;3.73;;
10170;SDS011;5127;50.922;6.988;2023-02-19T10:00:52;8.33;;;3.47;;
10170;SDS011;5127;50.922;6.988;2023-02-19T10:03:22;5.63;;;3.17;;
10170;SDS011;5127;50.922;6.988;2023-02-19T10:05:55;3.90;;;2.90;;
10170;SDS011;5127;50.922;6.988;2023-02-19T10:08:23;4.93;;;3.27;;
10170;SDS011;5127;50.922;6.988;2023-02-19T10:10:50;4.50;;;3.37;;
10170;SDS011;5127;50.922;6.988;2023-02-19T10:13:21;5.90;;;3.20;;
10170;SDS011;5127;50.922;6.988;2023-02-19T10:15:50;6.63;;;3.73;;
10170;SDS011;5127;50.922;6.988;2023-02-19T10:18:19;7.07;;;3.30;;
10170;SDS011;5127;50.922;6.988;2023-02-19T10:20:48;5.77;;;3.90;;
10170;SDS011;5127;50.922;6.988;2023-02-19T10:23:17;6.47;;;4.23;;
10170;SDS011;5127;50.922;6.988;2023-02-19T10:25:46;5.50;;;3.67;;
10170;SDS011;5127;50.922;6.988;2023-02-19T10:28:16;6.43;;;3.60;;
10170;SDS011;5127;50.922;6.988;2023-02-19T10:30:49;6.63;;;3.60;;
10170;SDS011;5127;50.922;6.988;2023-02-19T10:33:19;7.37;;;3.63;;
10170;SDS011;5127;50.922;6.988;2023-02-19T10:35:50;4.93;;;3.60;;
10170;SDS011;5127;50.922;6.988;2023-02-19T10:38:20;6.87;;;3.23;;
10170;SDS011;5127;50.922;6.988;2023-02-19T10:40:51;5.97;;;3.60;;
10170;SDS011;5127;50.922;6.988;2023-02-19T10:43:26;6.57;;;3.30;;
10170;SDS011;5127;50.922;6.988;2023-02-19T10:46:01;5.90;;;3.50;;
10170;SDS011;5127;50.922;6.988;2023-02-19T10:48:31;5.90;;;3.33;;
10170;SDS011;5127;50.922;6.988;2023-02-19T10:51:03;5.80;;;3.30;;
10170;SDS011;5127;50.922;6.988;2023-02-19T10:53:41;6.43;;;3.30;;
10170;SDS011;5127;50.922;6.988;2023-02-19T10:56:11;6.17;;;4.20;;
10170;SDS011;5127;50.922;6.988;2023-02-19T10:58:40;5.90;;;4.13;;
10170;SDS011;5127;50.922;6.988;2023-02-19T11:01:12;6.47;;;4.63;;
10170;SDS011;5127;50.922;6.988;2023-02-19T11:03:41;8.57;;;4.53;;
10170;SDS011;5127;50.922;6.988;2023-02-19T11:06:09;7.33;;;4.60;;
10170;SDS011;5127;50.922;6.988;2023-02-19T11:08:44;7.80;;;4.80;;
10170;SDS011;5127;50.922;6.988;2023-02-19T11:11:29;7.90;;;4.60;;
10170;SDS011;5127;50.922;6.988;2023-02-19T11:13:59;7.00;;;4.50;;
10170;SDS011;5127;50.922;6.988;2023-02-19T11:19:26;6.97;;;4.33;;
10170;SDS011;5127;50.922;6.988;2023-02-19T11:21:56;6.77;;;4.60;;
10170;SDS011;5127;50.922;6.988;2023-02-19T11:24:25;5.63;;;4.50;;
10170;SDS011;5127;50.922;6.988;2023-02-19T11:26:58;6.37;;;4.30;;
10170;SDS011;5127;50.922;6.988;2023-02-19T11:29:28;6.23;;;4.43;;
10170;SDS011;5127;50.922;6.988;2023-02-19T11:34:50;6.57;;;5.73;;
10170;SDS011;5127;50.922;6.988;2023-02-19T11:37:18;7.07;;;5.60;;
10170;SDS011;5127;50.922;6.988;2023-02-19T11:39:47;7.43;;;5.00;;
10170;SDS011;5127;50.922;6.988;2023-02-19T11:45:12;6.87;;;5.90;;
10170;SDS011;5127;50.922;6.988;2023-02-19T11:50:48;6.33;;;4.90;;
10170;SDS011;5127;50.922;6.988;2023-02-19T11:53:24;5.93;;;4.37;;
10170;SDS011;5127;50.922;6.988;2023-02-19T11:55:58;6.80;;;5.00;;
10170;SDS011;5127;50.922;6.988;2023-02-19T11:58:40;5.87;;;5.03;;
10170;SDS011;5127;50.922;6.988;2023-02-19T12:01:22;6.43;;;5.40;;
10170;SDS011;5127;50.922;6.988;2023-02-19T12:04:07;6.00;;;4.87;;
10170;SDS011;5127;50.922;6.988;2023-02-19T12:07:21;6.23;;;4.93;;
10170;SDS011;5127;50.922;6.988;2023-02-19T12:10:22;5.80;;;4.87;;
10170;SDS011;5127;50.922;6.988;2023-02-19T12:12:56;6.67;;;5.43;;
10170;SDS011;5127;50.922;6.988;2023-02-19T12:15:38;6.37;;;4.27;;
10170;SDS011;5127;50.922;6.988;2023-02-19T12:18:28;5.37;;;4.40;;
10170;SDS011;5127;50.922;6.988;2023-02-19T12:21:15;5.43;;;4.10;;
10170;SDS011;5127;50.922;6.988;2023-02-19T12:27:04;5.03;;;3.67;;
10170;SDS011;5127;50.922;6.988;2023-02-19T12:29:47;4.60;;;3.27;;
10170;SDS011;5127;50.922;6.988;2023-02-19T12:32:44;4.03;;;3.03;;
10170;SDS011;5127;50.922;6.988;2023-02-19T12:38:19;3.23;;;2.83;;
10170;SDS011;5127;50.922;6.988;2023-02-19T12:40:53;3.03;;;2.70;;
10170;SDS011;5127;50.922;6.988;2023-02-19T12:43:34;2.77;;;2.50;;
10170;SDS011;5127;50.922;6.988;2023-02-19T12:46:06;6.03;;;3.43;;
10170;SDS011;5127;50.922;6.988;2023-02-19T12:48:39;4.30;;;3.00;;
10170;SDS011;5127;50.922;6.988;2023-02-19T12:51:13;4.33;;;2.60;;
10170;SDS011;5127;50.922;6.988;2023-02-19T12:53:47;3.73;;;2.70;;
10170;SDS011;5127;50.922;6.988;2023-02-19T12:56:19;2.63;;;2.30;;
10170;SDS011;5127;50.922;6.988;2023-02-19T12:58:52;3.17;;;1.93;;
10170;SDS011;5127;50.922;6.988;2023-02-19T13:01:25;2.83;;;2.07;;
10170;SDS011;5127;50.922;6.988;2023-02-19T13:04:01;3.87;;;2.30;;
10170;SDS011;5127;50.922;6.988;2023-02-19T13:06:40;4.17;;;2.57;;
10170;SDS011;5127;50.922;6.988;2023-02-19T13:09:12;5.53;;;3.00;;
10170;SDS011;5127;50.922;6.988;2023-02-19T13:11:45;4.17;;;3.13;;
10170;SDS011;5127;50.922;6.988;2023-02-19T13:14:18;3.10;;;2.80;;
10170;SDS011;5127;50.922;6.988;2023-02-19T13:16:49;4.73;;;3.20;;
10170;SDS011;5127;50.922;6.988;2023-02-19T13:19:21;5.23;;;2.70;;
10170;SDS011;5127;50.922;6.988;2023-02-19T13:21:50;4.60;;;2.90;;
10170;SDS011;5127;50.922;6.988;2023-02-19T13:24:43;3.77;;;2.80;;
10170;SDS011;5127;50.922;6.988;2023-02-19T13:27:17;3.10;;;2.70;;
10170;SDS011;5127;50.922;6.988;2023-02-19T13:30:11;4.83;;;3.40;;
10170;SDS011;5127;50.922;6.988;2023-02-19T13:33:01;6.10;;;4.17;;
10170;SDS011;5127;50.922;6.988;2023-02-19T13:35:49;3.53;;;3.07;;
10170;SDS011;5127;50.922;6.988;2023-02-19T13:38:30;3.40;;;3.03;;
10170;SDS011;5127;50.922;6.988;2023-02-19T13:41:00;3.77;;;3.10;;
10170;SDS011;5127;50.922;6.988;2023-02-19T13:43:28;3.30;;;2.67;;
10170;SDS011;5127;50.922;6.988;2023-02-19T13:45:59;3.07;;;2.07;;
10170;SDS011;5127;50.922;6.988;2023-02-19T13:48:30;2.20;;;1.87;;
10170;SDS011;5127;50.922;6.988;2023-02-19T13:54:12;2.23;;;1.53;;
10170;SDS011;5127;50.922;6.988;2023-02-19T13:56:46;1.67;;;1.57;;
10170;SDS011;5127;50.922;6.988;2023-02-19T13:59:33;2.03;;;1.77;;
10170;SDS011;5127;50.922;6.988;2023-02-19T14:02:08;2.53;;;1.97;;
10170;SDS011;5127;50.922;6.988;2023-02-19T14:04:43;2.10;;;1.93;;
10170;SDS011;5127;50.922;6.988;2023-02-19T14:07:20;2.10;;;1.90;;
10170;SDS011;5127;50.922;6.988;2023-02-19T14:09:59;3.03;;;2.30;;
10170;SDS011;5127;50.922;6.988;2023-02-19T14:12:33;3.07;;;2.50;;
10170;SDS011;5127;50.922;6.988;2023-02-19T14:21:13;3.33;;;2.70;;
10170;SDS011;5127;50.922;6.988;2023-02-19T14:23:43;3.70;;;2.60;;
10170;SDS011;5127;50.922;6.988;2023-02-19T14:26:16;3.53;;;2.80;;
10170;SDS011;5127;50.922;6.988;2023-02-19T14:28:45;4.13;;;2.80;;
10170;SDS011;5127;50.922;6.988;2023-02-19T14:31:20;3.83;;;3.40;;
10170;SDS011;5127;50.922;6.988;2023-02-19T14:33:52;4.13;;;3.30;;
10170;SDS011;5127;50.922;6.988;2023-02-19T14:39:11;5.47;;;3.67;;
10170;SDS011;5127;50.922;6.988;2023-02-19T14:41:42;3.83;;;3.53;;
10170;SDS011;5127;50.922;6.988;2023-02-19T14:44:14;6.20;;;4.03;;
10170;SDS011;5127;50.922;6.988;2023-02-19T14:46:47;6.30;;;4.27;;
10170;SDS011;5127;50.922;6.988;2023-02-19T14:49:20;7.60;;;4.30;;
10170;SDS011;5127;50.922;6.988;2023-02-19T14:51:54;5.93;;;4.13;;
10170;SDS011;5127;50.922;6.988;2023-02-19T14:57:13;5.60;;;4.37;;
10170;SDS011;5127;50.922;6.988;2023-02-19T14:59:54;5.13;;;4.20;;
10170;SDS011;5127;50.922;6.988;2023-02-19T15:02:24;6.80;;;5.67;;
10170;SDS011;5127;50.922;6.988;2023-02-19T15:04:52;9.67;;;6.33;;
10170;SDS011;5127;50.922;6.988;2023-02-19T15:07:21;7.60;;;5.40;;
10170;SDS011;5127;50.922;6.988;2023-02-19T15:09:50;7.13;;;5.50;;
10170;SDS011;5127;50.922;6.988;2023-02-19T15:12:22;5.57;;;4.97;;
10170;SDS011;5127;50.922;6.988;2023-02-19T15:14:54;7.57;;;5.40;;
10170;SDS011;5127;50.922;6.988;2023-02-19T15:17:26;6.73;;;5.63;;
10170;SDS011;5127;50.922;6.988;2023-02-19T15:19:55;7.13;;;6.03;;
10170;SDS011;5127;50.922;6.988;2023-02-19T15:22:27;5.87;;;5.27;;
10170;SDS011;5127;50.922;6.988;2023-02-19T15:24:58;8.37;;;5.47;;
10170;SDS011;5127;50.922;6.988;2023-02-19T15:27:26;7.20;;;5.50;;
10170;SDS011;5127;50.922;6.988;2023-02-19T15:29:54;6.73;;;5.67;;
10170;SDS011;5127;50.922;6.988;2023-02-19T15:32:24;8.20;;;5.80;;
10170;SDS011;5127;50.922;6.988;2023-02-19T15:34:52;6.30;;;5.70;;
10170;SDS011;5127;50.922;6.988;2023-02-19T15:37:21;10.07;;;6.93;;
10170;SDS011;5127;50.922;6.988;2023-02-19T15:39:50;8.43;;;6.67;;
10170;SDS011;5127;50.922;6.988;2023-02-19T15:42:21;7.30;;;6.47;;
10170;SDS011;5127;50.922;6.988;2023-02-19T15:44:51;8.27;;;6.37;;
10170;SDS011;5127;50.922;6.988;2023-02-19T15:47:25;9.70;;;7.33;;
10170;SDS011;5127;50.922;6.988;2023-02-19T15:49:59;10.43;;;6.67;;
10170;SDS011;5127;50.922;6.988;2023-02-19T15:52:32;8.20;;;6.43;;
10170;SDS011;5127;50.922;6.988;2023-02-19T15:55:16;9.03;;;6.87;;
10170;SDS011;5127;50.922;6.988;2023-02-19T15:57:50;8.17;;;6.37;;
10170;SDS011;5127;50.922;6.988;2023-02-19T16:00:24;8.23;;;6.30;;
10170;SDS011;5127;50.922;6.988;2023-02-19T16:02:58;9.47;;;6.10;;
10170;SDS011;5127;50.922;6.988;2023-02-19T16:05:26;7.73;;;6.50;;